Aviation Digital Data Service (ADDS)

Output produced by METARs form (0506 UTC 21 January 2019)
found at http://www.aviationweather.gov/metar/data/
 
METAR text: WAJJ 210500Z 27007KT 9999 SCT013 30/23 Q1005 NOSIG
Conditions at: WAJJ (JAYAPURA/SENTANI, ID) observed 0500 UTC 21 January 2019
Temperature: 30.0°C (86°F)
Dewpoint: 23.0°C (73°F) [RH = 66%]
Pressure (altimeter): 29.68 inches Hg (1005.0 mb)
Winds: from the W (270 degrees) at 8 MPH (7 knots; 3.6 m/s)
Visibility: 6 or more miles (10+ km)
Ceiling: at least 12,000 feet AGL
Clouds: scattered clouds at 1300 feet AGL
Weather: no significant weather observed at this time

METAR text: WAJJ 210430Z 28006KT 9999 SCT013 30/23 Q1006 NOSIG
Conditions at: WAJJ (JAYAPURA/SENTANI, ID) observed 0430 UTC 21 January 2019
Temperature: 30.0°C (86°F)
Dewpoint: 23.0°C (73°F) [RH = 66%]
Pressure (altimeter): 29.70 inches Hg (1006.0 mb)
Winds: from the W (280 degrees) at 7 MPH (6 knots; 3.1 m/s)
Visibility: 6 or more miles (10+ km)
Ceiling: at least 12,000 feet AGL
Clouds: scattered clouds at 1300 feet AGL
Weather: no significant weather observed at this time

METAR text: WAJJ 210400Z 26006KT 9999 SCT013 31/23 Q1006 NOSIG
Conditions at: WAJJ (JAYAPURA/SENTANI, ID) observed 0400 UTC 21 January 2019
Temperature: 31.0°C (88°F)
Dewpoint: 23.0°C (73°F) [RH = 63%]
Pressure (altimeter): 29.70 inches Hg (1006.0 mb)
Winds: from the W (260 degrees) at 7 MPH (6 knots; 3.1 m/s)
Visibility: 6 or more miles (10+ km)
Ceiling: at least 12,000 feet AGL
Clouds: scattered clouds at 1300 feet AGL
Weather: no significant weather observed at this time

METAR text: WAJJ 210330Z 23003KT 9999 SCT013 31/24 Q1006 NOSIG
Conditions at: WAJJ (JAYAPURA/SENTANI, ID) observed 0330 UTC 21 January 2019
Temperature: 31.0°C (88°F)
Dewpoint: 24.0°C (75°F) [RH = 66%]
Pressure (altimeter): 29.70 inches Hg (1006.0 mb)
Winds: from the SW (230 degrees) at 3 MPH (3 knots; 1.5 m/s)
Visibility: 6 or more miles (10+ km)
Ceiling: at least 12,000 feet AGL
Clouds: scattered clouds at 1300 feet AGL
Weather: no significant weather observed at this time

METAR text: WAJJ 210300Z 12003KT 9999 SCT013 30/24 Q1007 NOSIG
Conditions at: WAJJ (JAYAPURA/SENTANI, ID) observed 0300 UTC 21 January 2019
Temperature: 30.0°C (86°F)
Dewpoint: 24.0°C (75°F) [RH = 70%]
Pressure (altimeter): 29.73 inches Hg (1007.0 mb)
Winds: from the ESE (120 degrees) at 3 MPH (3 knots; 1.5 m/s)
Visibility: 6 or more miles (10+ km)
Ceiling: at least 12,000 feet AGL
Clouds: scattered clouds at 1300 feet AGL
Weather: no significant weather observed at this time

METAR text: WAJJ 210230Z 08003KT 9999 SCT013 30/24 Q1007 NOSIG
Conditions at: WAJJ (JAYAPURA/SENTANI, ID) observed 0230 UTC 21 January 2019
Temperature: 30.0°C (86°F)
Dewpoint: 24.0°C (75°F) [RH = 70%]
Pressure (altimeter): 29.73 inches Hg (1007.0 mb)
Winds: from the E (80 degrees) at 3 MPH (3 knots; 1.5 m/s)
Visibility: 6 or more miles (10+ km)
Ceiling: at least 12,000 feet AGL
Clouds: scattered clouds at 1300 feet AGL
Weather: no significant weather observed at this time

METAR text: WAJJ 210200Z 24004KT 9999 SCT013 30/24 Q1008 NOSIG
Conditions at: WAJJ (JAYAPURA/SENTANI, ID) observed 0200 UTC 21 January 2019
Temperature: 30.0°C (86°F)
Dewpoint: 24.0°C (75°F) [RH = 70%]
Pressure (altimeter): 29.76 inches Hg (1008.0 mb)
Winds: from the WSW (240 degrees) at 5 MPH (4 knots; 2.1 m/s)
Visibility: 6 or more miles (10+ km)
Ceiling: at least 12,000 feet AGL
Clouds: scattered clouds at 1300 feet AGL
Weather: no significant weather observed at this time

METAR text: WAJJ 210130Z 26005KT 9999 FEW013 30/23 Q1008 NOSIG
Conditions at: WAJJ (JAYAPURA/SENTANI, ID) observed 0130 UTC 21 January 2019
Temperature: 30.0°C (86°F)
Dewpoint: 23.0°C (73°F) [RH = 66%]
Pressure (altimeter): 29.76 inches Hg (1008.0 mb)
Winds: from the W (260 degrees) at 6 MPH (5 knots; 2.6 m/s)
Visibility: 6 or more miles (10+ km)
Ceiling: at least 12,000 feet AGL
Clouds: few clouds at 1300 feet AGL
Weather: no significant weather observed at this time

METAR text: WAJJ 210100Z 26007KT 9999 FEW013 30/23 Q1008 NOSIG
Conditions at: WAJJ (JAYAPURA/SENTANI, ID) observed 0100 UTC 21 January 2019
Temperature: 30.0°C (86°F)
Dewpoint: 23.0°C (73°F) [RH = 66%]
Pressure (altimeter): 29.76 inches Hg (1008.0 mb)
Winds: from the W (260 degrees) at 8 MPH (7 knots; 3.6 m/s)
Visibility: 6 or more miles (10+ km)
Ceiling: at least 12,000 feet AGL
Clouds: few clouds at 1300 feet AGL
Weather: no significant weather observed at this time

METAR text: WAJJ 210030Z 23006KT 9999 FEW013 30/23 Q1008 NOSIG
Conditions at: WAJJ (JAYAPURA/SENTANI, ID) observed 0030 UTC 21 January 2019
Temperature: 30.0°C (86°F)
Dewpoint: 23.0°C (73°F) [RH = 66%]
Pressure (altimeter): 29.76 inches Hg (1008.0 mb)
Winds: from the SW (230 degrees) at 7 MPH (6 knots; 3.1 m/s)
Visibility: 6 or more miles (10+ km)
Ceiling: at least 12,000 feet AGL
Clouds: few clouds at 1300 feet AGL
Weather: no significant weather observed at this time

METAR text: WAJJ 210000Z 22005KT 9999 FEW013 30/23 Q1009 NOSIG
Conditions at: WAJJ (JAYAPURA/SENTANI, ID) observed 0000 UTC 21 January 2019
Temperature: 30.0°C (86°F)
Dewpoint: 23.0°C (73°F) [RH = 66%]
Pressure (altimeter): 29.79 inches Hg (1009.0 mb)
Winds: from the SW (220 degrees) at 6 MPH (5 knots; 2.6 m/s)
Visibility: 6 or more miles (10+ km)
Ceiling: at least 12,000 feet AGL
Clouds: few clouds at 1300 feet AGL
Weather: no significant weather observed at this time

METAR text: WAJJ 202330Z 29004KT 9999 FEW013 28/24 Q1009 NOSIG
Conditions at: WAJJ (JAYAPURA/SENTANI, ID) observed 2330 UTC 20 January 2019
Temperature: 28.0°C (82°F)
Dewpoint: 24.0°C (75°F) [RH = 79%]
Pressure (altimeter): 29.79 inches Hg (1009.0 mb)
Winds: from the WNW (290 degrees) at 5 MPH (4 knots; 2.1 m/s)
Visibility: 6 or more miles (10+ km)
Ceiling: at least 12,000 feet AGL
Clouds: few clouds at 1300 feet AGL
Weather: no significant weather observed at this time

METAR text: WAJJ 202300Z 00000KT 9999 FEW013 26/24 Q1009 NOSIG
Conditions at: WAJJ (JAYAPURA/SENTANI, ID) observed 2300 UTC 20 January 2019
Temperature: 26.0°C (79°F)
Dewpoint: 24.0°C (75°F) [RH = 89%]
Pressure (altimeter): 29.79 inches Hg (1009.0 mb)
Winds: calm
Visibility: 6 or more miles (10+ km)
Ceiling: at least 12,000 feet AGL
Clouds: few clouds at 1300 feet AGL
Weather: no significant weather observed at this time

METAR text: WAJJ 202230Z 17002KT 9999 FEW012 26/23 Q1009 NOSIG
Conditions at: WAJJ (JAYAPURA/SENTANI, ID) observed 2230 UTC 20 January 2019
Temperature: 26.0°C (79°F)
Dewpoint: 23.0°C (73°F) [RH = 84%]
Pressure (altimeter): 29.79 inches Hg (1009.0 mb)
Winds: from the S (170 degrees) at 2 MPH (2 knots; 1.0 m/s)
Visibility: 6 or more miles (10+ km)
Ceiling: at least 12,000 feet AGL
Clouds: few clouds at 1200 feet AGL
Weather: no significant weather observed at this time

METAR text: WAJJ 202200Z 00000KT 9999 FEW012 25/23 Q1009 NOSIG
Conditions at: WAJJ (JAYAPURA/SENTANI, ID) observed 2200 UTC 20 January 2019
Temperature: 25.0°C (77°F)
Dewpoint: 23.0°C (73°F) [RH = 89%]
Pressure (altimeter): 29.79 inches Hg (1009.0 mb)
Winds: calm
Visibility: 6 or more miles (10+ km)
Ceiling: at least 12,000 feet AGL
Clouds: few clouds at 1200 feet AGL
Weather: no significant weather observed at this time

METAR text: WAJJ 202130Z 35002KT 9999 FEW010 25/23 Q1008 NOSIG
Conditions at: WAJJ (JAYAPURA/SENTANI, ID) observed 2130 UTC 20 January 2019
Temperature: 25.0°C (77°F)
Dewpoint: 23.0°C (73°F) [RH = 89%]
Pressure (altimeter): 29.76 inches Hg (1008.0 mb)
Winds: from the N (350 degrees) at 2 MPH (2 knots; 1.0 m/s)
Visibility: 6 or more miles (10+ km)
Ceiling: at least 12,000 feet AGL
Clouds: few clouds at 1000 feet AGL
Weather: no significant weather observed at this time

METAR text: WAJJ 202100Z 13002KT 9999 FEW010 24/23 Q1008 NOSIG
Conditions at: WAJJ (JAYAPURA/SENTANI, ID) observed 2100 UTC 20 January 2019
Temperature: 24.0°C (75°F)
Dewpoint: 23.0°C (73°F) [RH = 94%]
Pressure (altimeter): 29.76 inches Hg (1008.0 mb)
Winds: from the SE (130 degrees) at 2 MPH (2 knots; 1.0 m/s)
Visibility: 6 or more miles (10+ km)
Ceiling: at least 12,000 feet AGL
Clouds: few clouds at 1000 feet AGL
Weather: no significant weather observed at this time

METAR text: WAJJ 202000Z 25002KT 9999 FEW010 24/23 Q1007 NOSIG
Conditions at: WAJJ (JAYAPURA/SENTANI, ID) observed 2000 UTC 20 January 2019
Temperature: 24.0°C (75°F)
Dewpoint: 23.0°C (73°F) [RH = 94%]
Pressure (altimeter): 29.73 inches Hg (1007.0 mb)
Winds: from the WSW (250 degrees) at 2 MPH (2 knots; 1.0 m/s)
Visibility: 6 or more miles (10+ km)
Ceiling: at least 12,000 feet AGL
Clouds: few clouds at 1000 feet AGL
Weather: no significant weather observed at this time

METAR text: WAJJ 201900Z 00000KT 9999 SCT010 24/23 Q1007 NOSIG
Conditions at: WAJJ (JAYAPURA/SENTANI, ID) observed 1900 UTC 20 January 2019
Temperature: 24.0°C (75°F)
Dewpoint: 23.0°C (73°F) [RH = 94%]
Pressure (altimeter): 29.73 inches Hg (1007.0 mb)
Winds: calm
Visibility: 6 or more miles (10+ km)
Ceiling: at least 12,000 feet AGL
Clouds: scattered clouds at 1000 feet AGL
Weather: no significant weather observed at this time

METAR text: WAJJ 201800Z 29002KT 9999 SCT010 24/23 Q1007 NOSIG
Conditions at: WAJJ (JAYAPURA/SENTANI, ID) observed 1800 UTC 20 January 2019
Temperature: 24.0°C (75°F)
Dewpoint: 23.0°C (73°F) [RH = 94%]
Pressure (altimeter): 29.73 inches Hg (1007.0 mb)
Winds: from the WNW (290 degrees) at 2 MPH (2 knots; 1.0 m/s)
Visibility: 6 or more miles (10+ km)
Ceiling: at least 12,000 feet AGL
Clouds: scattered clouds at 1000 feet AGL
Weather: no significant weather observed at this time

METAR text: WAJJ 201700Z 30002KT 9999 FEW010 24/23 Q1007 NOSIG
Conditions at: WAJJ (JAYAPURA/SENTANI, ID) observed 1700 UTC 20 January 2019
Temperature: 24.0°C (75°F)
Dewpoint: 23.0°C (73°F) [RH = 94%]
Pressure (altimeter): 29.73 inches Hg (1007.0 mb)
Winds: from the WNW (300 degrees) at 2 MPH (2 knots; 1.0 m/s)
Visibility: 6 or more miles (10+ km)
Ceiling: at least 12,000 feet AGL
Clouds: few clouds at 1000 feet AGL
Weather: no significant weather observed at this time

METAR text: WAJJ 201600Z 00000KT 8000 SCT013 24/23 Q1007 NOSIG
Conditions at: WAJJ (JAYAPURA/SENTANI, ID) observed 1600 UTC 20 January 2019
Temperature: 24.0°C (75°F)
Dewpoint: 23.0°C (73°F) [RH = 94%]
Pressure (altimeter): 29.73 inches Hg (1007.0 mb)
Winds: calm
Visibility: 5 miles ( 8 km)
Ceiling: at least 12,000 feet AGL
Clouds: scattered clouds at 1300 feet AGL
Weather: no significant weather observed at this time

METAR text: WAJJ 201500Z 00000KT 8000 SCT013 24/23 Q1008 NOSIG
Conditions at: WAJJ (JAYAPURA/SENTANI, ID) observed 1500 UTC 20 January 2019
Temperature: 24.0°C (75°F)
Dewpoint: 23.0°C (73°F) [RH = 94%]
Pressure (altimeter): 29.76 inches Hg (1008.0 mb)
Winds: calm
Visibility: 5 miles ( 8 km)
Ceiling: at least 12,000 feet AGL
Clouds: scattered clouds at 1300 feet AGL
Weather: no significant weather observed at this time

METAR text: WAJJ 201400Z 00000KT 8000 -RA FEW013 24/23 Q1009 NOSIG
Conditions at: WAJJ (JAYAPURA/SENTANI, ID) observed 1400 UTC 20 January 2019
Temperature: 24.0°C (75°F)
Dewpoint: 23.0°C (73°F) [RH = 94%]
Pressure (altimeter): 29.79 inches Hg (1009.0 mb)
Winds: calm
Visibility: 5 miles ( 8 km)
Ceiling: at least 12,000 feet AGL
Clouds: few clouds at 1300 feet AGL
Weather: -RA  (light rain)

METAR text: WAJJ 201300Z 28003KT 8000 -RA FEW013 24/23 Q1009 NOSIG
Conditions at: WAJJ (JAYAPURA/SENTANI, ID) observed 1300 UTC 20 January 2019
Temperature: 24.0°C (75°F)
Dewpoint: 23.0°C (73°F) [RH = 94%]
Pressure (altimeter): 29.79 inches Hg (1009.0 mb)
Winds: from the W (280 degrees) at 3 MPH (3 knots; 1.5 m/s)
Visibility: 5 miles ( 8 km)
Ceiling: at least 12,000 feet AGL
Clouds: few clouds at 1300 feet AGL
Weather: -RA  (light rain)

METAR text: WAJJ 201200Z 27004KT 8000 -RA FEW013 25/23 Q1009 NOSIG
Conditions at: WAJJ (JAYAPURA/SENTANI, ID) observed 1200 UTC 20 January 2019
Temperature: 25.0°C (77°F)
Dewpoint: 23.0°C (73°F) [RH = 89%]
Pressure (altimeter): 29.79 inches Hg (1009.0 mb)
Winds: from the W (270 degrees) at 5 MPH (4 knots; 2.1 m/s)
Visibility: 5 miles ( 8 km)
Ceiling: at least 12,000 feet AGL
Clouds: few clouds at 1300 feet AGL
Weather: -RA  (light rain)

METAR text: WAJJ 201100Z 26005KT 9999 FEW013 26/23 Q1008 NOSIG
Conditions at: WAJJ (JAYAPURA/SENTANI, ID) observed 1100 UTC 20 January 2019
Temperature: 26.0°C (79°F)
Dewpoint: 23.0°C (73°F) [RH = 84%]
Pressure (altimeter): 29.76 inches Hg (1008.0 mb)
Winds: from the W (260 degrees) at 6 MPH (5 knots; 2.6 m/s)
Visibility: 6 or more miles (10+ km)
Ceiling: at least 12,000 feet AGL
Clouds: few clouds at 1300 feet AGL
Weather: no significant weather observed at this time

METAR text: WAJJ 201000Z 00000KT 9999 FEW013 27/24 Q1007 NOSIG
Conditions at: WAJJ (JAYAPURA/SENTANI, ID) observed 1000 UTC 20 January 2019
Temperature: 27.0°C (81°F)
Dewpoint: 24.0°C (75°F) [RH = 84%]
Pressure (altimeter): 29.73 inches Hg (1007.0 mb)
Winds: calm
Visibility: 6 or more miles (10+ km)
Ceiling: at least 12,000 feet AGL
Clouds: few clouds at 1300 feet AGL
Weather: no significant weather observed at this time

METAR text: WAJJ 200900Z 00000KT 9999 FEW013 27/24 Q1006 NOSIG
Conditions at: WAJJ (JAYAPURA/SENTANI, ID) observed 0900 UTC 20 January 2019
Temperature: 27.0°C (81°F)
Dewpoint: 24.0°C (75°F) [RH = 84%]
Pressure (altimeter): 29.70 inches Hg (1006.0 mb)
Winds: calm
Visibility: 6 or more miles (10+ km)
Ceiling: at least 12,000 feet AGL
Clouds: few clouds at 1300 feet AGL
Weather: no significant weather observed at this time

METAR text: WAJJ 200830Z 00000KT 9999 FEW013 27/24 Q1006 NOSIG
Conditions at: WAJJ (JAYAPURA/SENTANI, ID) observed 0830 UTC 20 January 2019
Temperature: 27.0°C (81°F)
Dewpoint: 24.0°C (75°F) [RH = 84%]
Pressure (altimeter): 29.70 inches Hg (1006.0 mb)
Winds: calm
Visibility: 6 or more miles (10+ km)
Ceiling: at least 12,000 feet AGL
Clouds: few clouds at 1300 feet AGL
Weather: no significant weather observed at this time

METAR text: WAJJ 200800Z 19003KT 9999 FEW013 28/24 Q1006 NOSIG
Conditions at: WAJJ (JAYAPURA/SENTANI, ID) observed 0800 UTC 20 January 2019
Temperature: 28.0°C (82°F)
Dewpoint: 24.0°C (75°F) [RH = 79%]
Pressure (altimeter): 29.70 inches Hg (1006.0 mb)
Winds: from the S (190 degrees) at 3 MPH (3 knots; 1.5 m/s)
Visibility: 6 or more miles (10+ km)
Ceiling: at least 12,000 feet AGL
Clouds: few clouds at 1300 feet AGL
Weather: no significant weather observed at this time

METAR text: WAJJ 200730Z 26005KT 9999 SCT013 28/23 Q1005 NOSIG
Conditions at: WAJJ (JAYAPURA/SENTANI, ID) observed 0730 UTC 20 January 2019
Temperature: 28.0°C (82°F)
Dewpoint: 23.0°C (73°F) [RH = 74%]
Pressure (altimeter): 29.68 inches Hg (1005.0 mb)
Winds: from the W (260 degrees) at 6 MPH (5 knots; 2.6 m/s)
Visibility: 6 or more miles (10+ km)
Ceiling: at least 12,000 feet AGL
Clouds: scattered clouds at 1300 feet AGL
Weather: no significant weather observed at this time

METAR text: WAJJ 200700Z 31002KT 9999 SCT013 29/23 Q1005 NOSIG
Conditions at: WAJJ (JAYAPURA/SENTANI, ID) observed 0700 UTC 20 January 2019
Temperature: 29.0°C (84°F)
Dewpoint: 23.0°C (73°F) [RH = 70%]
Pressure (altimeter): 29.68 inches Hg (1005.0 mb)
Winds: from the NW (310 degrees) at 2 MPH (2 knots; 1.0 m/s)
Visibility: 6 or more miles (10+ km)
Ceiling: at least 12,000 feet AGL
Clouds: scattered clouds at 1300 feet AGL
Weather: no significant weather observed at this time

METAR text: WAJJ 200530Z 12003KT 9999 -RA SCT013 29/24 Q1007 NOSIG
Conditions at: WAJJ (JAYAPURA/SENTANI, ID) observed 0530 UTC 20 January 2019
Temperature: 29.0°C (84°F)
Dewpoint: 24.0°C (75°F) [RH = 74%]
Pressure (altimeter): 29.73 inches Hg (1007.0 mb)
Winds: from the ESE (120 degrees) at 3 MPH (3 knots; 1.5 m/s)
Visibility: 6 or more miles (10+ km)
Ceiling: at least 12,000 feet AGL
Clouds: scattered clouds at 1300 feet AGL
Weather: -RA  (light rain)

METAR text: WAJJ 200500Z 23003KT 8000 -RA FEW012CB SCT013 28/25 Q1006 NOSIG
Conditions at: WAJJ (JAYAPURA/SENTANI, ID) observed 0500 UTC 20 January 2019
Temperature: 28.0°C (82°F)
Dewpoint: 25.0°C (77°F) [RH = 84%]
Pressure (altimeter): 29.70 inches Hg (1006.0 mb)
Winds: from the SW (230 degrees) at 3 MPH (3 knots; 1.5 m/s)
Visibility: 5 miles ( 8 km)
Ceiling: at least 12,000 feet AGL
Clouds: few clouds at 1200 feet AGL
scattered clouds at 1300 feet AGL
Weather: -RA  (light rain)

METAR text: WAJJ 200430Z 26005KT 6000 -TSRA FEW012CB SCT013 28/24 Q1006 NOSIG
Conditions at: WAJJ (JAYAPURA/SENTANI, ID) observed 0430 UTC 20 January 2019
Temperature: 28.0°C (82°F)
Dewpoint: 24.0°C (75°F) [RH = 79%]
Pressure (altimeter): 29.70 inches Hg (1006.0 mb)
Winds: from the W (260 degrees) at 6 MPH (5 knots; 2.6 m/s)
Visibility: 4 miles ( 6 km)
Ceiling: at least 12,000 feet AGL
Clouds: few clouds at 1200 feet AGL
scattered clouds at 1300 feet AGL
Weather: -TSRA  (light rain associated with thunderstorm(s))

METAR text: WAJJ 200400Z 30009KT 6000 -TSRA FEW012CB SCT013 28/24 Q1006 NOSIG
Conditions at: WAJJ (JAYAPURA/SENTANI, ID) observed 0400 UTC 20 January 2019
Temperature: 28.0°C (82°F)
Dewpoint: 24.0°C (75°F) [RH = 79%]
Pressure (altimeter): 29.70 inches Hg (1006.0 mb)
Winds: from the WNW (300 degrees) at 10 MPH (9 knots; 4.6 m/s)
Visibility: 4 miles ( 6 km)
Ceiling: at least 12,000 feet AGL
Clouds: few clouds at 1200 feet AGL
scattered clouds at 1300 feet AGL
Weather: -TSRA  (light rain associated with thunderstorm(s))

METAR text: WAJJ 200300Z 28006KT 6000 VCSH FEW012CB SCT013 30/24 Q1006 NOSIG
Conditions at: WAJJ (JAYAPURA/SENTANI, ID) observed 0300 UTC 20 January 2019
Temperature: 30.0°C (86°F)
Dewpoint: 24.0°C (75°F) [RH = 70%]
Pressure (altimeter): 29.70 inches Hg (1006.0 mb)
Winds: from the W (280 degrees) at 7 MPH (6 knots; 3.1 m/s)
Visibility: 4 miles ( 6 km)
Ceiling: at least 12,000 feet AGL
Clouds: few clouds at 1200 feet AGL
scattered clouds at 1300 feet AGL
Weather: VCSH  (showers in vicinity)

METAR text: WAJJ 200230Z 13003KT 9999 SCT013 31/24 Q1007 NOSIG
Conditions at: WAJJ (JAYAPURA/SENTANI, ID) observed 0230 UTC 20 January 2019
Temperature: 31.0°C (88°F)
Dewpoint: 24.0°C (75°F) [RH = 66%]
Pressure (altimeter): 29.73 inches Hg (1007.0 mb)
Winds: from the SE (130 degrees) at 3 MPH (3 knots; 1.5 m/s)
Visibility: 6 or more miles (10+ km)
Ceiling: at least 12,000 feet AGL
Clouds: scattered clouds at 1300 feet AGL
Weather: no significant weather observed at this time

METAR text: WAJJ 200200Z 12003KT 9999 SCT013 30/24 Q1007 NOSIG
Conditions at: WAJJ (JAYAPURA/SENTANI, ID) observed 0200 UTC 20 January 2019
Temperature: 30.0°C (86°F)
Dewpoint: 24.0°C (75°F) [RH = 70%]
Pressure (altimeter): 29.73 inches Hg (1007.0 mb)
Winds: from the ESE (120 degrees) at 3 MPH (3 knots; 1.5 m/s)
Visibility: 6 or more miles (10+ km)
Ceiling: at least 12,000 feet AGL
Clouds: scattered clouds at 1300 feet AGL
Weather: no significant weather observed at this time

METAR text: WAJJ 200130Z 13006KT 9999 FEW013 31/24 Q1007 NOSIG
Conditions at: WAJJ (JAYAPURA/SENTANI, ID) observed 0130 UTC 20 January 2019
Temperature: 31.0°C (88°F)
Dewpoint: 24.0°C (75°F) [RH = 66%]
Pressure (altimeter): 29.73 inches Hg (1007.0 mb)
Winds: from the SE (130 degrees) at 7 MPH (6 knots; 3.1 m/s)
Visibility: 6 or more miles (10+ km)
Ceiling: at least 12,000 feet AGL
Clouds: few clouds at 1300 feet AGL
Weather: no significant weather observed at this time

METAR text: WAJJ 200100Z 12005KT 9999 FEW013 32/24 Q1008 NOSIG
Conditions at: WAJJ (JAYAPURA/SENTANI, ID) observed 0100 UTC 20 January 2019
Temperature: 32.0°C (90°F)
Dewpoint: 24.0°C (75°F) [RH = 63%]
Pressure (altimeter): 29.76 inches Hg (1008.0 mb)
Winds: from the ESE (120 degrees) at 6 MPH (5 knots; 2.6 m/s)
Visibility: 6 or more miles (10+ km)
Ceiling: at least 12,000 feet AGL
Clouds: few clouds at 1300 feet AGL
Weather: no significant weather observed at this time

METAR text: WAJJ 200030Z 16006KT 9999 FEW014 32/25 Q1008 NOSIG
Conditions at: WAJJ (JAYAPURA/SENTANI, ID) observed 0030 UTC 20 January 2019
Temperature: 32.0°C (90°F)
Dewpoint: 25.0°C (77°F) [RH = 67%]
Pressure (altimeter): 29.76 inches Hg (1008.0 mb)
Winds: from the SSE (160 degrees) at 7 MPH (6 knots; 3.1 m/s)
Visibility: 6 or more miles (10+ km)
Ceiling: at least 12,000 feet AGL
Clouds: few clouds at 1400 feet AGL
Weather: no significant weather observed at this time

METAR text: WAJJ 200000Z 14004KT 9999 FEW014 30/25 Q1008 NOSIG
Conditions at: WAJJ (JAYAPURA/SENTANI, ID) observed 0000 UTC 20 January 2019
Temperature: 30.0°C (86°F)
Dewpoint: 25.0°C (77°F) [RH = 75%]
Pressure (altimeter): 29.76 inches Hg (1008.0 mb)
Winds: from the SE (140 degrees) at 5 MPH (4 knots; 2.1 m/s)
Visibility: 6 or more miles (10+ km)
Ceiling: at least 12,000 feet AGL
Clouds: few clouds at 1400 feet AGL
Weather: no significant weather observed at this time

METAR text: WAJJ 192330Z 12003KT 9999 FEW012 29/24 Q1007 NOSIG
Conditions at: WAJJ (JAYAPURA/SENTANI, ID) observed 2330 UTC 19 January 2019
Temperature: 29.0°C (84°F)
Dewpoint: 24.0°C (75°F) [RH = 74%]
Pressure (altimeter): 29.73 inches Hg (1007.0 mb)
Winds: from the ESE (120 degrees) at 3 MPH (3 knots; 1.5 m/s)
Visibility: 6 or more miles (10+ km)
Ceiling: at least 12,000 feet AGL
Clouds: few clouds at 1200 feet AGL
Weather: no significant weather observed at this time

METAR text: WAJJ 192300Z 12003KT 9999 FEW010 29/24 Q1007 NOSIG
Conditions at: WAJJ (JAYAPURA/SENTANI, ID) observed 2300 UTC 19 January 2019
Temperature: 29.0°C (84°F)
Dewpoint: 24.0°C (75°F) [RH = 74%]
Pressure (altimeter): 29.73 inches Hg (1007.0 mb)
Winds: from the ESE (120 degrees) at 3 MPH (3 knots; 1.5 m/s)
Visibility: 6 or more miles (10+ km)
Ceiling: at least 12,000 feet AGL
Clouds: few clouds at 1000 feet AGL
Weather: no significant weather observed at this time

METAR text: WAJJ 192230Z 00000KT 9999 FEW010 27/24 Q1007 NOSIG
Conditions at: WAJJ (JAYAPURA/SENTANI, ID) observed 2230 UTC 19 January 2019
Temperature: 27.0°C (81°F)
Dewpoint: 24.0°C (75°F) [RH = 84%]
Pressure (altimeter): 29.73 inches Hg (1007.0 mb)
Winds: calm
Visibility: 6 or more miles (10+ km)
Ceiling: at least 12,000 feet AGL
Clouds: few clouds at 1000 feet AGL
Weather: no significant weather observed at this time

METAR text: WAJJ 192200Z 00000KT 9999 FEW010 26/23 Q1007 NOSIG
Conditions at: WAJJ (JAYAPURA/SENTANI, ID) observed 2200 UTC 19 January 2019
Temperature: 26.0°C (79°F)
Dewpoint: 23.0°C (73°F) [RH = 84%]
Pressure (altimeter): 29.73 inches Hg (1007.0 mb)
Winds: calm
Visibility: 6 or more miles (10+ km)
Ceiling: at least 12,000 feet AGL
Clouds: few clouds at 1000 feet AGL
Weather: no significant weather observed at this time

METAR text: WAJJ 192130Z 06002KT 9999 FEW010 26/24 Q1006 NOSIG
Conditions at: WAJJ (JAYAPURA/SENTANI, ID) observed 2130 UTC 19 January 2019
Temperature: 26.0°C (79°F)
Dewpoint: 24.0°C (75°F) [RH = 89%]
Pressure (altimeter): 29.70 inches Hg (1006.0 mb)
Winds: from the ENE (60 degrees) at 2 MPH (2 knots; 1.0 m/s)
Visibility: 6 or more miles (10+ km)
Ceiling: at least 12,000 feet AGL
Clouds: few clouds at 1000 feet AGL
Weather: no significant weather observed at this time

METAR text: WAJJ 192100Z 00000KT 9999 FEW010 26/24 Q1006 NOSIG
Conditions at: WAJJ (JAYAPURA/SENTANI, ID) observed 2100 UTC 19 January 2019
Temperature: 26.0°C (79°F)
Dewpoint: 24.0°C (75°F) [RH = 89%]
Pressure (altimeter): 29.70 inches Hg (1006.0 mb)
Winds: calm
Visibility: 6 or more miles (10+ km)
Ceiling: at least 12,000 feet AGL
Clouds: few clouds at 1000 feet AGL
Weather: no significant weather observed at this time

METAR text: WAJJ 192030Z 00000KT 9999 FEW010 25/23 Q1006 NOSIG
Conditions at: WAJJ (JAYAPURA/SENTANI, ID) observed 2030 UTC 19 January 2019
Temperature: 25.0°C (77°F)
Dewpoint: 23.0°C (73°F) [RH = 89%]
Pressure (altimeter): 29.70 inches Hg (1006.0 mb)
Winds: calm
Visibility: 6 or more miles (10+ km)
Ceiling: at least 12,000 feet AGL
Clouds: few clouds at 1000 feet AGL
Weather: no significant weather observed at this time

METAR text: WAJJ 192000Z 00000KT 9999 FEW010 25/23 Q1006 NOSIG
Conditions at: WAJJ (JAYAPURA/SENTANI, ID) observed 2000 UTC 19 January 2019
Temperature: 25.0°C (77°F)
Dewpoint: 23.0°C (73°F) [RH = 89%]
Pressure (altimeter): 29.70 inches Hg (1006.0 mb)
Winds: calm
Visibility: 6 or more miles (10+ km)
Ceiling: at least 12,000 feet AGL
Clouds: few clouds at 1000 feet AGL
Weather: no significant weather observed at this time

METAR text: WAJJ 191900Z 00000KT 9999 FEW010 26/23 Q1006 NOSIG
Conditions at: WAJJ (JAYAPURA/SENTANI, ID) observed 1900 UTC 19 January 2019
Temperature: 26.0°C (79°F)
Dewpoint: 23.0°C (73°F) [RH = 84%]
Pressure (altimeter): 29.70 inches Hg (1006.0 mb)
Winds: calm
Visibility: 6 or more miles (10+ km)
Ceiling: at least 12,000 feet AGL
Clouds: few clouds at 1000 feet AGL
Weather: no significant weather observed at this time

METAR text: WAJJ 191800Z 00000KT 9999 FEW013 26/23 Q1006 NOSIG
Conditions at: WAJJ (JAYAPURA/SENTANI, ID) observed 1800 UTC 19 January 2019
Temperature: 26.0°C (79°F)
Dewpoint: 23.0°C (73°F) [RH = 84%]
Pressure (altimeter): 29.70 inches Hg (1006.0 mb)
Winds: calm
Visibility: 6 or more miles (10+ km)
Ceiling: at least 12,000 feet AGL
Clouds: few clouds at 1300 feet AGL
Weather: no significant weather observed at this time